EDDF/FRA METAR and TAF weather

Enter ICAO airport designator
Station Type Date Time Source
EDDF METAR 2024/05/28 23:50 UTC NOAA

EDDF 282350Z AUTO 19004KT CAVOK 15/10 Q1016 NOSIG


Station Type Date Time Source
EDDF Decoded METAR 2024/05/28 23:50 UTC NOAA

Frankfurt / M-Flughafen, Germany (EDDF) 50-03N 008-36E 113M
May 28, 2024 - 07:50 PM EDT / 2024.05.28 2350 UTC
Wind: from the S (190 degrees) at 5 MPH (4 KT):0
Visibility: greater than 7 mile(s):0
Temperature: 59 F (15 C)
Dew Point: 50 F (10 C)
Relative Humidity: 72%
Pressure (altimeter): 30.00 in. Hg (1016 hPa)
ob: EDDF 282350Z AUTO 19004KT CAVOK 15/10 Q1016 NOSIG
cycle: 0

Station Type Date Time Source
EDDF TAF 2024/05/28 18:28 UTC NOAA